Time;durP1;ratioP1;P1;durP2;ratioP2;P2;SDS_P1;SDS_P2;PMS_P1;PMS_P2;Temp;Humidity;BMP_temperature;BMP_pressure;BME280_temperature;BME280_humidity;BME280_pressure;Samples;Min_cycle;Max_cycle;Signal;HPM_P1;HPM_P2
2023/09/21 00:00:32;;;;;;;;;;;;;;;20.27;66.13;99514.66;5050610;28;19910;-74
2023/09/21 00:02:58;;;;;;;;;;;;;;;20.57;64.54;99514.34;5040924;28;19917;-74
2023/09/21 00:05:27;;;;;;;;;;;;;;;20.66;64.14;99513.16;5026116;28;19909;-74
2023/09/21 00:07:57;;;;;;;;;;;;;;;20.74;64.21;99511.91;5045645;28;19920;-74
2023/09/21 00:10:23;;;;;;;;;;;;;;;20.77;63.83;99516.81;5046282;28;20368;-74
2023/09/21 00:12:48;;;;;;;;;;;;;;;20.39;65.56;99508.63;5032149;28;19917;-74
2023/09/21 00:15:21;;;;;;;;;;;;;;;19.81;67.58;99505.50;5050984;28;19928;-74
2023/09/21 00:17:47;;;;;;;;;;;;;;;19.79;67.85;99516.44;5049430;28;20336;-74
2023/09/21 00:20:23;;;;;;;;;;;;;;;20.08;66.52;99515.81;5032725;28;19920;-74
2023/09/21 00:22:49;;;;;;;;;;;;;;;20.24;66.01;99516.28;5054050;28;20372;-74
2023/09/21 00:25:16;;;;;;;;;;;;;;;20.28;66.07;99519.94;5063464;28;19999;-74
2023/09/21 00:27:41;;;;;;;;;;;;;;;20.31;66.23;99516.31;5053008;28;19968;-74
2023/09/21 00:30:07;;;;;;;;;;;;;;;20.31;66.08;99510.63;5042455;28;20446;-74
2023/09/21 00:32:39;;;;;;;;;;;;;;;20.22;66.67;99520.75;5034526;28;20009;-74
2023/09/21 00:35:09;;;;;;;;;;;;;;;20.19;66.96;99514.63;5034546;28;19916;-74
2023/09/21 00:37:35;;;;;;;;;;;;;;;20.25;66.84;99512.22;5033082;28;19916;-74
2023/09/21 00:40:00;;;;;;;;;;;;;;;20.18;67.56;99509.38;5044973;28;20289;-74
2023/09/21 00:42:25;;;;;;;;;;;;;;;20.33;66.75;99513.88;5053573;28;19909;-74
2023/09/21 00:44:51;;;;;;;;;;;;;;;20.35;66.74;99504.97;5046171;28;19924;-74
2023/09/21 00:47:16;;;;;;;;;;;;;;;20.27;67.36;99509.81;5016544;28;19916;-74
2023/09/21 00:49:42;;;;;;;;;;;;;;;20.05;68.04;99506.88;5025784;28;19974;-74
2023/09/21 00:52:11;;;;;;;;;;;;;;;19.78;67.45;99509.16;5053780;28;19913;-74
2023/09/21 00:54:38;;;;;;;;;;;;;;;19.50;68.59;99511.41;5036191;28;19913;-74
2023/09/21 00:57:05;;;;;;;;;;;;;;;19.16;69.75;99513.63;5044365;28;19920;-74
2023/09/21 00:59:35;;;;;;;;;;;;;;;19.59;68.42;99510.25;5027826;28;19916;-74
2023/09/21 01:02:01;;;;;;;;;;;;;;;19.67;67.88;99516.78;5053842;28;19909;-74
2023/09/21 01:04:26;;;;;;;;;;;;;;;19.03;70.27;99508.25;5035622;28;19919;-74
2023/09/21 01:06:52;;;;;;;;;;;;;;;19.36;68.90;99505.66;5053769;28;19913;-74
2023/09/21 01:09:17;;;;;;;;;;;;;;;18.88;71.27;99510.09;5030047;28;20381;-74
2023/09/21 01:11:43;;;;;;;;;;;;;;;18.94;71.25;99507.72;5035696;28;19912;-74
2023/09/21 01:14:08;;;;;;;;;;;;;;;18.97;71.12;99508.97;5034840;28;19967;-74
2023/09/21 01:16:34;;;;;;;;;;;;;;;18.82;71.80;99505.19;5053619;28;19909;-74
2023/09/21 01:19:00;;;;;;;;;;;;;;;19.04;70.97;99506.22;5034880;28;19959;-74
2023/09/21 01:21:28;;;;;;;;;;;;;;;19.13;70.55;99503.06;5040370;28;20293;-74
2023/09/21 01:23:55;;;;;;;;;;;;;;;19.07;70.94;99508.28;5033678;28;19931;-74
2023/09/21 01:26:20;;;;;;;;;;;;;;;18.69;72.13;99501.81;5015720;28;19916;-74
2023/09/21 01:28:47;;;;;;;;;;;;;;;18.87;71.49;99497.16;5035833;28;19920;-74
2023/09/21 01:31:13;;;;;;;;;;;;;;;18.96;71.09;99498.84;5025252;28;20332;-74
2023/09/21 01:33:39;;;;;;;;;;;;;;;19.07;70.45;99508.28;5032360;28;19999;-74
2023/09/21 01:36:08;;;;;;;;;;;;;;;18.94;71.27;99499.22;5033352;28;19915;-74
2023/09/21 01:38:34;;;;;;;;;;;;;;;18.90;71.64;99495.56;5015819;28;19917;-74
2023/09/21 01:40:59;;;;;;;;;;;;;;;18.52;73.21;99498.44;5033239;28;19964;-74
2023/09/21 01:43:24;;;;;;;;;;;;;;;18.81;72.14;99501.53;5015495;28;20348;-74
2023/09/21 01:45:50;;;;;;;;;;;;;;;18.71;72.71;99507.94;5015342;28;19983;-74
2023/09/21 01:48:18;;;;;;;;;;;;;;;18.48;73.88;99500.41;5033454;28;19920;-74
2023/09/21 01:50:46;;;;;;;;;;;;;;;18.93;71.67;99506.91;5052779;28;19912;-74
2023/09/21 01:53:12;;;;;;;;;;;;;;;18.65;72.93;99502.59;5052820;28;19913;-74
2023/09/21 01:55:38;;;;;;;;;;;;;;;18.48;72.71;99489.88;5020390;28;19913;-74
2023/09/21 01:58:04;;;;;;;;;;;;;;;18.01;74.99;99499.84;5033468;28;20072;-74
2023/09/21 02:00:29;;;;;;;;;;;;;;;18.05;75.49;99504.38;5015163;28;19913;-74
2023/09/21 02:02:55;;;;;;;;;;;;;;;18.11;75.85;99513.34;5042912;28;19920;-74
2023/09/21 02:05:21;;;;;;;;;;;;;;;17.87;75.95;99509.78;5052774;28;19916;-74
2023/09/21 02:07:47;;;;;;;;;;;;;;;17.82;77.21;99504.47;5018512;28;20285;-73
2023/09/21 02:10:15;;;;;;;;;;;;;;;17.85;76.74;99500.03;5015503;28;19913;-74
2023/09/21 02:12:41;;;;;;;;;;;;;;;17.93;77.09;99504.59;5032562;28;19917;-74
2023/09/21 02:15:17;;;;;;;;;;;;;;;17.85;77.61;99506.53;5032643;28;20360;-74
2023/09/21 02:17:42;;;;;;;;;;;;;;;18.21;75.60;99500.50;5036239;28;19921;-74
2023/09/21 02:20:14;;;;;;;;;;;;;;;18.26;74.83;99500.19;5051196;28;19920;-74
2023/09/21 02:22:49;;;;;;;;;;;;;;;18.21;75.99;99497.69;5034539;28;20006;-74
2023/09/21 02:25:15;;;;;;;;;;;;;;;18.42;75.25;99504.78;5034510;28;20459;-74
2023/09/21 02:27:41;;;;;;;;;;;;;;;18.12;76.42;99497.19;5034393;28;19947;-74
2023/09/21 02:30:17;;;;;;;;;;;;;;;18.20;76.92;99499.72;5050399;28;19912;-74
2023/09/21 02:32:48;;;;;;;;;;;;;;;18.08;77.45;99499.97;5052104;28;19921;-74
2023/09/21 02:35:15;;;;;;;;;;;;;;;17.96;78.22;99498.16;5051212;28;20315;-74
2023/09/21 02:37:47;;;;;;;;;;;;;;;18.22;77.65;99497.31;5033901;28;19979;-74
2023/09/21 02:40:19;;;;;;;;;;;;;;;18.55;75.83;99496.84;5050667;28;19917;-74
2023/09/21 02:42:49;;;;;;;;;;;;;;;18.44;75.97;99505.22;5033468;28;19913;-74
2023/09/21 02:45:14;;;;;;;;;;;;;;;18.10;77.20;99506.88;5051901;28;19936;-74
2023/09/21 02:47:43;;;;;;;;;;;;;;;18.36;76.56;99505.16;5067330;28;20305;-74
2023/09/21 02:50:14;;;;;;;;;;;;;;;18.03;77.92;99503.94;5032273;28;20302;-74
2023/09/21 02:52:54;;;;;;;;;;;;;;;17.77;78.89;99508.44;5041705;28;19972;-74
2023/09/21 02:55:20;;;;;;;;;;;;;;;17.64;79.48;99513.50;5031944;28;20003;-74
2023/09/21 02:57:47;;;;;;;;;;;;;;;17.64;80.16;99513.50;5031829;28;19913;-74
2023/09/21 03:00:58;;;;;;;;;;;;;;;17.60;79.83;99529.63;5017291;28;19974;-74
2023/09/21 03:02:59;;;;;;;;;;;;;;;17.48;80.78;99524.97;5024394;28;19947;-74
2023/09/21 03:05:25;;;;;;;;;;;;;;;17.67;79.96;99528.91;5014096;28;19920;-74
2023/09/21 03:07:50;;;;;;;;;;;;;;;17.84;79.35;99527.53;5039577;28;19920;-74
2023/09/21 03:10:16;;;;;;;;;;;;;;;17.98;78.85;99526.09;5048422;28;20304;-74
2023/09/21 03:12:42;;;;;;;;;;;;;;;18.23;77.82;99521.56;5041690;28;20424;-74
2023/09/21 03:15:13;;;;;;;;;;;;;;;18.45;76.85;99512.50;5031697;28;19909;-74
2023/09/21 03:17:38;;;;;;;;;;;;;;;18.49;76.14;99521.88;5045261;28;19952;-74
2023/09/21 03:20:09;;;;;;;;;;;;;;;18.55;75.67;99525.97;5051461;28;19948;-74
2023/09/21 03:22:34;;;;;;;;;;;;;;;18.57;75.63;99526.38;5046727;28;19917;-74
2023/09/21 03:25:00;;;;;;;;;;;;;;;18.03;77.88;99534.25;5051339;28;19931;-74
2023/09/21 03:27:25;;;;;;;;;;;;;;;18.05;78.33;99531.88;5027099;28;19916;-74
2023/09/21 03:29:51;;;;;;;;;;;;;;;17.94;78.76;99521.19;5050807;28;19912;-74
2023/09/21 03:32:17;;;;;;;;;;;;;;;17.88;79.00;99528.38;5030370;28;20369;-72
2023/09/21 03:34:43;;;;;;;;;;;;;;;17.91;79.36;99529.63;5043870;28;19916;-71
2023/09/21 03:37:12;;;;;;;;;;;;;;;18.26;77.77;99530.50;5027424;28;20350;-72
2023/09/21 03:39:37;;;;;;;;;;;;;;;18.38;76.64;99525.38;5046630;28;19967;-72
2023/09/21 03:42:03;;;;;;;;;;;;;;;18.60;76.15;99517.13;5051043;28;20399;-72
2023/09/21 03:44:29;;;;;;;;;;;;;;;18.76;75.04;99519.72;5051230;28;19909;-71
2023/09/21 03:46:54;;;;;;;;;;;;;;;18.46;75.77;99522.63;5051138;28;19966;-72
2023/09/21 03:49:21;;;;;;;;;;;;;;;18.56;75.76;99513.44;5050888;28;19912;-71
2023/09/21 03:51:47;;;;;;;;;;;;;;;18.82;74.86;99508.81;5051038;28;19920;-72
2023/09/21 03:54:13;;;;;;;;;;;;;;;18.91;74.53;99514.19;5051034;28;20066;-70
2023/09/21 03:56:39;;;;;;;;;;;;;;;18.62;75.05;99514.72;5050463;28;19919;-70
2023/09/21 03:59:06;;;;;;;;;;;;;;;18.57;76.41;99520.72;5030494;28;19916;-69
2023/09/21 04:01:34;;;;;;;;;;;;;;;18.83;75.34;99518.16;5034762;28;19913;-70
2023/09/21 04:04:05;;;;;;;;;;;;;;;18.97;74.76;99520.31;5032122;28;20475;-68
2023/09/21 04:06:31;;;;;;;;;;;;;;;19.00;74.48;99525.22;5055058;28;20380;-69
2023/09/21 04:08:56;;;;;;;;;;;;;;;18.90;75.37;99521.84;5050732;28;19919;-72
2023/09/21 04:11:22;;;;;;;;;;;;;;;18.82;75.37;99525.03;5042016;28;19913;-73
2023/09/21 04:13:47;;;;;;;;;;;;;;;18.99;75.04;99529.22;5031407;28;19916;-73
2023/09/21 04:16:13;;;;;;;;;;;;;;;19.16;74.38;99530.63;5052166;28;19912;-73
2023/09/21 04:18:38;;;;;;;;;;;;;;;19.26;73.76;99529.91;5054117;28;19936;-73
2023/09/21 04:21:07;;;;;;;;;;;;;;;19.25;73.71;99530.28;5025621;28;19920;-73
2023/09/21 04:23:33;;;;;;;;;;;;;;;19.22;73.95;99524.19;5051254;28;19915;-73
2023/09/21 04:25:58;;;;;;;;;;;;;;;19.16;74.17;99525.75;5036883;28;19908;-73
2023/09/21 04:28:23;;;;;;;;;;;;;;;19.11;74.55;99522.47;5048022;28;19978;-73
2023/09/21 04:30:50;;;;;;;;;;;;;;;19.27;73.77;99527.84;5035071;28;19913;-73
2023/09/21 04:33:15;;;;;;;;;;;;;;;19.32;73.88;99522.63;5036257;28;19955;-73
2023/09/21 04:35:40;;;;;;;;;;;;;;;19.40;73.37;99523.50;5047157;28;20358;-73
2023/09/21 04:38:05;;;;;;;;;;;;;;;19.50;72.98;99522.75;5036640;28;19995;-73
2023/09/21 04:40:31;;;;;;;;;;;;;;;19.49;73.15;99520.34;5040361;28;19920;-73
2023/09/21 04:42:56;;;;;;;;;;;;;;;19.49;73.57;99521.13;5018388;28;20011;-73
2023/09/21 04:45:22;;;;;;;;;;;;;;;19.24;74.04;99520.16;5042627;28;19931;-73
2023/09/21 04:47:49;;;;;;;;;;;;;;;19.42;73.74;99509.72;5044176;28;20393;-73
2023/09/21 04:50:16;;;;;;;;;;;;;;;19.45;74.10;99516.66;5038852;28;19913;-72
2023/09/21 04:52:43;;;;;;;;;;;;;;;19.31;74.97;99503.19;5051079;28;19927;-73
2023/09/21 04:55:09;;;;;;;;;;;;;;;19.32;74.97;99511.28;5053054;28;19951;-73
2023/09/21 04:57:35;;;;;;;;;;;;;;;19.40;74.45;99515.00;5051432;28;20403;-73
2023/09/21 05:00:04;;;;;;;;;;;;;;;19.24;75.03;99514.47;5053700;28;19908;-73
2023/09/21 05:02:30;;;;;;;;;;;;;;;19.46;74.01;99513.44;5036121;28;19908;-73
2023/09/21 05:04:55;;;;;;;;;;;;;;;19.43;74.08;99517.06;5051596;28;19912;-73
2023/09/21 05:07:20;;;;;;;;;;;;;;;19.10;75.85;99527.34;5051544;28;19920;-73
2023/09/21 05:09:46;;;;;;;;;;;;;;;19.21;75.04;99531.06;5053401;28;19967;-73
2023/09/21 05:12:12;;;;;;;;;;;;;;;19.03;77.19;99521.59;5035890;28;19913;-73
2023/09/21 05:14:37;;;;;;;;;;;;;;;19.16;77.46;99520.06;5053596;28;20344;-73
2023/09/21 05:17:05;;;;;;;;;;;;;;;18.62;79.16;99528.88;5035885;28;19966;-73
2023/09/21 05:19:30;;;;;;;;;;;;;;;18.65;80.50;99535.78;5035409;28;19963;-73
2023/09/21 05:21:56;;;;;;;;;;;;;;;18.86;79.59;99535.19;5053636;28;20349;-72
2023/09/21 05:24:22;;;;;;;;;;;;;;;18.82;79.79;99537.16;5034240;28;19921;-73
2023/09/21 05:26:47;;;;;;;;;;;;;;;18.67;80.62;99545.50;5053490;28;19959;-73
2023/09/21 05:29:13;;;;;;;;;;;;;;;18.43;81.92;99546.06;5050105;28;20019;-73
2023/09/21 05:31:38;;;;;;;;;;;;;;;18.49;81.72;99542.50;5052203;28;19919;-73
2023/09/21 05:34:03;;;;;;;;;;;;;;;18.51;81.25;99533.63;5053278;28;19927;-74
2023/09/21 05:36:30;;;;;;;;;;;;;;;18.26;81.98;99539.81;5053012;28;20393;-73
2023/09/21 05:38:55;;;;;;;;;;;;;;;17.86;84.82;99538.44;5035104;28;20016;-73
2023/09/21 05:41:21;;;;;;;;;;;;;;;18.26;82.80;99536.97;5035065;28;19956;-73
2023/09/21 05:43:46;;;;;;;;;;;;;;;18.72;80.89;99546.38;5053244;28;19983;-73
2023/09/21 05:46:11;;;;;;;;;;;;;;;18.87;79.72;99541.66;5051973;28;20339;-73
2023/09/21 05:48:38;;;;;;;;;;;;;;;19.14;78.53;99544.38;5043824;28;19916;-73
2023/09/21 05:51:04;;;;;;;;;;;;;;;19.29;77.88;99546.13;5050624;28;19962;-73
2023/09/21 05:53:31;;;;;;;;;;;;;;;19.30;76.94;99547.75;5052993;28;19919;-73
2023/09/21 05:55:57;;;;;;;;;;;;;;;19.43;76.24;99548.25;5052892;28;19978;-73
2023/09/21 05:58:23;;;;;;;;;;;;;;;19.48;76.89;99556.38;5053415;28;20296;-72
2023/09/21 06:00:49;;;;;;;;;;;;;;;19.62;75.98;99552.00;5052572;28;19920;-72
2023/09/21 06:03:14;;;;;;;;;;;;;;;19.33;76.60;99557.50;5034933;28;19912;-73
2023/09/21 06:05:39;;;;;;;;;;;;;;;19.64;75.18;99555.25;5041326;28;19939;-72
2023/09/21 06:08:05;;;;;;;;;;;;;;;19.77;75.21;99561.44;5045173;28;20447;-73
2023/09/21 06:10:30;;;;;;;;;;;;;;;19.94;73.85;99559.94;5034761;28;19909;-73
2023/09/21 06:12:56;;;;;;;;;;;;;;;20.01;72.93;99557.13;5052655;28;19995;-73
2023/09/21 06:15:22;;;;;;;;;;;;;;;20.05;74.68;99551.47;5052514;28;19913;-72
2023/09/21 06:17:47;;;;;;;;;;;;;;;20.29;72.43;99549.97;5033904;28;19920;-72
2023/09/21 06:20:12;;;;;;;;;;;;;;;20.53;70.67;99541.13;5032893;28;19991;-73
2023/09/21 06:22:38;;;;;;;;;;;;;;;20.29;71.43;99547.13;5052526;28;20007;-72
2023/09/21 06:25:06;;;;;;;;;;;;;;;20.21;70.27;99548.31;5052393;28;19915;-72
2023/09/21 06:27:32;;;;;;;;;;;;;;;20.19;72.27;99556.41;5034205;28;19916;-73
2023/09/21 06:29:58;;;;;;;;;;;;;;;20.08;70.41;99549.88;5034278;28;20019;-72
2023/09/21 06:32:24;;;;;;;;;;;;;;;20.07;71.35;99549.06;5052215;28;19972;-72
2023/09/21 06:34:51;;;;;;;;;;;;;;;20.11;70.93;99546.22;5049888;28;19931;-73
2023/09/21 06:37:18;;;;;;;;;;;;;;;20.23;71.01;99551.56;5048874;28;19952;-73
2023/09/21 06:39:43;;;;;;;;;;;;;;;20.43;70.44;99549.19;5051020;28;19908;-73
2023/09/21 06:42:09;;;;;;;;;;;;;;;20.59;69.40;99548.03;5050646;28;20373;-73
2023/09/21 06:44:34;;;;;;;;;;;;;;;20.75;68.08;99545.63;5052077;28;19909;-73
2023/09/21 06:46:59;;;;;;;;;;;;;;;20.68;68.69;99550.50;5052023;28;19919;-73
2023/09/21 06:49:26;;;;;;;;;;;;;;;20.55;67.93;99553.72;5051962;28;20301;-73
2023/09/21 06:51:51;;;;;;;;;;;;;;;20.58;67.79;99549.25;5048965;28;19916;-73
2023/09/21 06:54:17;;;;;;;;;;;;;;;20.60;68.70;99552.50;5043555;28;19917;-73
2023/09/21 06:56:42;;;;;;;;;;;;;;;20.50;68.79;99548.41;5033905;28;19909;-73
2023/09/21 06:59:07;;;;;;;;;;;;;;;20.40;69.82;99544.31;5051460;28;19915;-73
2023/09/21 07:01:34;;;;;;;;;;;;;;;20.44;69.77;99553.66;5051670;28;20400;-73
2023/09/21 07:03:59;;;;;;;;;;;;;;;20.44;69.58;99552.88;5051810;28;19908;-73
2023/09/21 07:06:25;;;;;;;;;;;;;;;20.47;69.22;99561.41;5051687;28;19909;-74
2023/09/21 07:08:50;;;;;;;;;;;;;;;20.51;69.34;99552.88;5029730;28;20367;-73
2023/09/21 07:11:19;;;;;;;;;;;;;;;20.46;69.32;99559.78;5025615;28;19912;-73
2023/09/21 07:13:45;;;;;;;;;;;;;;;20.61;69.17;99560.63;5051550;28;20389;-73
2023/09/21 07:16:10;;;;;;;;;;;;;;;20.57;69.35;99554.13;5033676;28;20428;-72
2023/09/21 07:18:37;;;;;;;;;;;;;;;20.65;69.34;99554.16;5051679;28;19913;-73
2023/09/21 07:21:02;;;;;;;;;;;;;;;20.66;68.81;99555.78;5045946;28;19917;-74
2023/09/21 07:23:27;;;;;;;;;;;;;;;20.74;68.33;99561.06;5046046;28;20004;-70
2023/09/21 07:25:53;;;;;;;;;;;;;;;20.77;68.83;99565.13;5049293;28;19920;-70
2023/09/21 07:28:18;;;;;;;;;;;;;;;20.72;69.67;99562.66;5044216;28;19951;-71
2023/09/21 07:30:43;;;;;;;;;;;;;;;20.73;68.71;99567.97;5045515;28;20848;-70
2023/09/21 07:33:09;;;;;;;;;;;;;;;20.78;68.82;99575.28;5033303;28;19941;-70
2023/09/21 07:35:34;;;;;;;;;;;;;;;20.94;67.98;99566.41;5047337;28;19947;-70
2023/09/21 07:38:00;;;;;;;;;;;;;;;20.98;67.76;99567.22;5045044;28;19924;-72
2023/09/21 07:40:25;;;;;;;;;;;;;;;21.01;67.56;99566.41;5048569;28;19912;-71
2023/09/21 07:42:51;;;;;;;;;;;;;;;21.20;66.96;99566.41;5048746;28;19912;-71
2023/09/21 07:45:16;;;;;;;;;;;;;;;21.25;66.25;99568.88;5048126;28;19916;-72
2023/09/21 07:47:42;;;;;;;;;;;;;;;21.32;65.83;99569.69;5029741;28;19927;-72
2023/09/21 07:50:08;;;;;;;;;;;;;;;21.44;65.28;99565.59;5062760;28;19912;-73
2023/09/21 07:52:34;;;;;;;;;;;;;;;21.55;65.65;99570.47;5070545;28;20410;-72
2023/09/21 07:55:02;;;;;;;;;;;;;;;21.66;64.62;99576.13;5030304;28;19913;-71
2023/09/21 07:57:34;;;;;;;;;;;;;;;21.62;63.77;99576.16;5051078;28;19909;-71
2023/09/21 08:00:00;;;;;;;;;;;;;;;21.78;63.50;99577.78;5054093;28;20388;-71
2023/09/21 08:02:27;;;;;;;;;;;;;;;22.00;62.72;99570.84;5049979;28;19920;-73
2023/09/21 08:04:53;;;;;;;;;;;;;;;22.19;62.87;99567.94;5033013;28;19912;-72
2023/09/21 08:07:23;;;;;;;;;;;;;;;22.22;62.21;99569.94;5045171;28;20392;-78
2023/09/21 08:09:48;;;;;;;;;;;;;;;22.26;61.76;99565.84;5032060;28;19912;-78
2023/09/21 08:12:14;;;;;;;;;;;;;;;22.48;61.02;99564.94;5032053;28;19916;-77
2023/09/21 08:14:39;;;;;;;;;;;;;;;22.50;60.79;99569.03;5053354;28;19912;-80
2023/09/21 08:17:04;;;;;;;;;;;;;;;22.62;60.65;99562.03;5049302;28;19916;-78
2023/09/21 08:19:30;;;;;;;;;;;;;;;22.74;60.03;99569.31;5043884;28;19913;-79
2023/09/21 08:21:55;;;;;;;;;;;;;;;22.79;59.35;99566.00;5049272;28;19947;-79
2023/09/21 08:24:21;;;;;;;;;;;;;;;22.73;58.92;99556.28;5051299;28;20413;-78
2023/09/21 08:26:46;;;;;;;;;;;;;;;22.80;58.74;99559.09;5032443;28;19916;-78
2023/09/21 08:29:14;;;;;;;;;;;;;;;22.71;58.89;99555.91;5050422;28;19924;-78
2023/09/21 08:31:41;;;;;;;;;;;;;;;22.85;59.10;99555.81;5048008;28;19919;-79
2023/09/21 08:34:06;;;;;;;;;;;;;;;22.81;59.37;99562.75;5032412;28;20002;-78
2023/09/21 08:36:31;;;;;;;;;;;;;;;23.10;59.23;99566.22;5032282;28;20420;-78
2023/09/21 08:38:57;;;;;;;;;;;;;;;23.25;58.15;99557.53;5034074;28;19916;-78
2023/09/21 08:41:25;;;;;;;;;;;;;;;23.22;58.28;99556.34;5047746;28;20423;-79
2023/09/21 08:43:54;;;;;;;;;;;;;;;23.24;58.64;99551.03;5036767;28;20410;-79
2023/09/21 08:46:19;;;;;;;;;;;;;;;23.36;58.48;99551.78;5052589;28;19928;-78
2023/09/21 08:48:45;;;;;;;;;;;;;;;23.27;58.60;99546.56;5055614;28;19961;-78
2023/09/21 08:51:11;;;;;;;;;;;;;;;23.45;58.10;99542.75;5032543;28;19912;-79
2023/09/21 08:53:39;;;;;;;;;;;;;;;23.47;58.11;99540.28;5055590;28;20317;-79
2023/09/21 08:56:04;;;;;;;;;;;;;;;23.44;58.00;99536.22;5056193;28;19916;-79
2023/09/21 08:58:33;;;;;;;;;;;;;;;23.14;59.01;99532.75;5044824;28;19941;-84
2023/09/21 09:00:58;;;;;;;;;;;;;;;23.51;58.90;99535.31;5036620;28;19912;-82
2023/09/21 09:03:27;;;;;;;;;;;;;;;23.67;58.40;99532.75;5056143;28;20537;-80
2023/09/21 09:05:58;;;;;;;;;;;;;;;23.93;57.49;99536.13;5054586;28;19923;-76
2023/09/21 09:08:24;;;;;;;;;;;;;;;24.07;56.41;99534.38;5053504;28;19935;-79
2023/09/21 09:10:53;;;;;;;;;;;;;;;24.12;55.98;99533.88;5055376;28;19919;-77
2023/09/21 09:13:19;;;;;;;;;;;;;;;23.95;55.20;99536.50;5027556;28;20015;-78
2023/09/21 09:15:45;;;;;;;;;;;;;;;24.12;55.23;99536.75;5050252;28;19972;-81
2023/09/21 09:18:12;;;;;;;;;;;;;;;24.45;53.99;99539.19;5053558;28;19944;-79
2023/09/21 09:20:38;;;;;;;;;;;;;;;24.71;53.37;99528.22;5052971;28;19913;-80
2023/09/21 09:23:10;;;;;;;;;;;;;;;24.54;53.96;99525.16;5052762;28;19908;-83
2023/09/21 09:25:36;;;;;;;;;;;;;;;24.70;53.38;99521.69;5033461;28;19912;-83
2023/09/21 09:28:03;;;;;;;;;;;;;;;24.66;53.03;99520.94;5049962;28;19916;-80
2023/09/21 09:30:29;;;;;;;;;;;;;;;24.56;55.29;99527.59;5050326;28;19913;-78
2023/09/21 09:32:56;;;;;;;;;;;;;;;24.16;54.56;99517.53;5028037;28;19932;-80
2023/09/21 09:35:21;;;;;;;;;;;;;;;23.77;55.55;99519.56;5051442;28;19935;-80
2023/09/21 09:37:50;;;;;;;;;;;;;;;24.09;54.47;99514.75;5033566;28;19940;-82
2023/09/21 09:40:19;;;;;;;;;;;;;;;24.49;53.38;99517.88;5034164;28;19917;-82
2023/09/21 09:42:44;;;;;;;;;;;;;;;23.97;55.50;99516.09;5034261;28;20393;-79
2023/09/21 09:45:20;;;;;;;;;;;;;;;24.35;53.83;99518.09;5047538;28;19955;-80
2023/09/21 09:47:55;;;;;;;;;;;;;;;24.61;53.17;99507.91;5057042;28;19916;-78
2023/09/21 09:50:24;;;;;;;;;;;;;;;24.82;53.31;99508.88;5047206;28;19924;-78
2023/09/21 09:52:50;;;;;;;;;;;;;;;25.18;51.92;99504.59;5051225;28;19912;-83
2023/09/21 09:55:18;;;;;;;;;;;;;;;25.40;50.64;99504.25;5049967;28;20348;-76
2023/09/21 09:57:48;;;;;;;;;;;;;;;24.88;51.75;99509.19;5050666;28;19981;-77
2023/09/21 10:00:21;;;;;;;;;;;;;;;24.94;51.72;99510.31;5035371;28;19912;-74
2023/09/21 10:02:47;;;;;;;;;;;;;;;25.05;51.86;99510.94;5032774;28;20351;-73
2023/09/21 10:05:13;;;;;;;;;;;;;;;24.92;53.10;99504.22;5052422;28;19921;-74
2023/09/21 10:07:39;;;;;;;;;;;;;;;24.97;52.58;99500.84;5047260;28;19897;-75
2023/09/21 10:10:04;;;;;;;;;;;;;;;25.37;52.07;99501.00;5045234;28;19912;-72
2023/09/21 10:12:32;;;;;;;;;;;;;;;25.73;51.55;99496.69;5059219;28;19909;-75
2023/09/21 10:14:57;;;;;;;;;;;;;;;25.79;49.30;99494.94;5038725;28;20543;-77
2023/09/21 10:17:23;;;;;;;;;;;;;;;25.37;49.54;99489.56;5053103;28;20007;-78
2023/09/21 10:19:49;;;;;;;;;;;;;;;25.30;50.51;99486.81;5033083;28;19912;-75
2023/09/21 10:22:28;;;;;;;;;;;;;;;25.28;50.46;99485.63;5029263;28;20434;-77
2023/09/21 10:24:58;;;;;;;;;;;;;;;25.64;49.45;99474.34;5047927;28;19920;-74
2023/09/21 10:27:25;;;;;;;;;;;;;;;26.11;49.01;99466.88;5018404;28;19940;-74
2023/09/21 10:29:51;;;;;;;;;;;;;;;26.34;47.69;99468.81;5046653;28;19917;-73
2023/09/21 10:32:21;;;;;;;;;;;;;;;26.19;47.21;99462.63;5044800;28;19999;-73
2023/09/21 10:34:48;;;;;;;;;;;;;;;26.11;48.23;99466.88;5032784;28;19995;-73
2023/09/21 10:37:15;;;;;;;;;;;;;;;26.26;47.72;99458.78;5028152;28;19955;-73
2023/09/21 10:39:40;;;;;;;;;;;;;;;26.59;47.66;99455.19;5050622;28;19919;-72
2023/09/21 10:42:06;;;;;;;;;;;;;;;26.67;46.05;99450.91;5053452;28;19952;-73
2023/09/21 10:44:51;;;;;;;;;;;;;;;26.80;46.11;99447.31;5054476;28;20301;-72
2023/09/21 10:47:17;;;;;;;;;;;;;;;25.89;46.54;99443.59;5049873;28;21717;-70
2023/09/21 10:49:43;;;;;;;;;;;;;;;26.01;47.57;99440.06;5050611;28;19916;-75
2023/09/21 10:52:08;;;;;;;;;;;;;;;26.39;46.22;99441.69;5052446;28;19917;-76
2023/09/21 10:54:34;;;;;;;;;;;;;;;26.27;45.82;99433.78;5026909;28;20474;-76
2023/09/21 10:57:00;;;;;;;;;;;;;;;26.55;44.97;99432.31;5046532;28;20328;-75
2023/09/21 10:59:29;;;;;;;;;;;;;;;26.98;45.42;99427.59;5035105;28;19924;-75
2023/09/21 11:01:55;;;;;;;;;;;;;;;27.25;44.04;99432.22;5050156;28;19919;-75
2023/09/21 11:04:20;;;;;;;;;;;;;;;26.90;45.34;99418.38;5048662;28;19912;-74
2023/09/21 11:06:46;;;;;;;;;;;;;;;26.76;45.70;99419.50;5048764;28;19920;-75
2023/09/21 11:09:11;;;;;;;;;;;;;;;27.03;45.14;99418.47;5046273;28;19943;-75
2023/09/21 11:11:37;;;;;;;;;;;;;;;27.30;44.42;99416.50;5053744;28;19915;-75
2023/09/21 11:14:05;;;;;;;;;;;;;;;27.32;43.53;99411.94;5048887;28;19920;-74
2023/09/21 11:16:31;;;;;;;;;;;;;;;27.30;43.44;99405.84;5046524;28;20446;-75
2023/09/21 11:18:56;;;;;;;;;;;;;;;27.45;44.26;99405.44;5048448;28;19913;-74
2023/09/21 11:21:22;;;;;;;;;;;;;;;27.54;43.94;99388.41;5051062;28;19912;-75
2023/09/21 11:23:49;;;;;;;;;;;;;;;27.36;44.04;99388.06;5050664;28;20340;-74
2023/09/21 11:26:15;;;;;;;;;;;;;;;26.96;45.24;99384.22;5050623;28;19919;-74
2023/09/21 11:28:41;;;;;;;;;;;;;;;27.31;44.29;99377.94;5031214;28;19916;-75
2023/09/21 11:31:07;;;;;;;;;;;;;;;27.39;43.42;99373.59;5050648;28;19913;-76
2023/09/21 11:33:33;;;;;;;;;;;;;;;27.73;42.29;99375.13;5033338;28;19912;-76
2023/09/21 11:35:58;;;;;;;;;;;;;;;27.84;42.04;99366.16;5032905;28;19913;-76
2023/09/21 11:38:23;;;;;;;;;;;;;;;28.01;41.83;99371.84;5030154;28;19967;-75
2023/09/21 11:40:49;;;;;;;;;;;;;;;28.21;41.11;99365.06;5050719;28;19974;-75
2023/09/21 11:43:16;;;;;;;;;;;;;;;28.36;39.60;99371.16;5051058;28;19958;-77
2023/09/21 11:45:45;;;;;;;;;;;;;;;27.96;39.86;99361.72;5048920;28;19924;-76
2023/09/21 11:48:12;;;;;;;;;;;;;;;28.09;40.13;99367.44;5043323;28;19913;-75
2023/09/21 11:50:38;;;;;;;;;;;;;;;28.28;41.50;99361.97;5043537;28;19971;-76
2023/09/21 11:53:07;;;;;;;;;;;;;;;26.98;41.44;99346.47;5044070;28;20378;-75
2023/09/21 11:55:33;;;;;;;;;;;;;;;27.82;41.26;99348.56;5044472;28;19913;-76
2023/09/21 11:58:08;;;;;;;;;;;;;;;28.19;40.89;99347.47;5045940;28;19920;-76
2023/09/21 12:00:43;;;;;;;;;;;;;;;28.22;40.50;99341.63;5030369;28;19917;-76
2023/09/21 12:03:12;;;;;;;;;;;;;;;28.43;40.24;99342.97;5049407;28;20062;-75
2023/09/21 12:05:39;;;;;;;;;;;;;;;28.68;39.95;99320.41;5047991;28;19920;-75
2023/09/21 12:08:07;;;;;;;;;;;;;;;28.81;39.99;99324.06;5041005;28;20304;-76
2023/09/21 12:10:32;;;;;;;;;;;;;;;28.72;40.26;99321.88;5048980;28;19921;-75
2023/09/21 12:12:58;;;;;;;;;;;;;;;28.57;39.62;99320.75;5031401;28;19917;-75
2023/09/21 12:15:23;;;;;;;;;;;;;;;28.79;39.29;99320.00;5049016;28;20389;-75
2023/09/21 12:17:48;;;;;;;;;;;;;;;29.09;38.96;99309.13;5042529;28;19920;-75
2023/09/21 12:20:18;;;;;;;;;;;;;;;29.26;39.06;99309.69;5032888;28;20003;-75
2023/09/21 12:22:44;;;;;;;;;;;;;;;29.17;38.55;99310.44;5052252;28;20007;-76
2023/09/21 12:25:09;;;;;;;;;;;;;;;29.48;38.80;99303.97;5052669;28;19927;-78
2023/09/21 12:27:35;;;;;;;;;;;;;;;29.42;38.29;99302.94;5056081;28;20392;-78
2023/09/21 12:30:01;;;;;;;;;;;;;;;29.36;38.21;99310.59;5033716;28;20389;-72
2023/09/21 12:32:28;;;;;;;;;;;;;;;29.50;38.21;99307.19;5051044;28;19923;-72
2023/09/21 12:34:54;;;;;;;;;;;;;;;29.23;39.05;99305.69;5033465;28;19963;-72
2023/09/21 12:37:21;;;;;;;;;;;;;;;28.93;39.06;99308.00;5054503;28;19963;-72
2023/09/21 12:39:46;;;;;;;;;;;;;;;28.59;39.99;99312.44;5034811;28;19917;-72
2023/09/21 12:42:14;;;;;;;;;;;;;;;28.43;40.23;99308.47;5033875;28;20374;-72
2023/09/21 12:44:40;;;;;;;;;;;;;;;28.62;40.14;99304.97;5021968;28;19913;-72